Time;durP1;ratioP1;P1;durP2;ratioP2;P2;SDS_P1;SDS_P2;PMS_P1;PMS_P2;Temp;Humidity;BMP_temperature;BMP_pressure;BME280_temperature;BME280_humidity;BME280_pressure;Samples;Min_cycle;Max_cycle;Signal;HPM_P1;HPM_P2
2022/03/27 00:01:34;;;;;;;36.60;16.02;;;;;;;10.59;36.33;97541.78;4982766;28;20219;-67
2022/03/27 00:04:00;;;;;;;41.53;17.23;;;;;;;10.52;36.65;97536.09;4983249;28;20045;-67
2022/03/27 00:06:25;;;;;;;39.83;18.20;;;;;;;10.47;36.36;97534.38;4976582;28;20057;-65
2022/03/27 00:08:51;;;;;;;39.88;17.48;;;;;;;10.44;36.16;97537.00;4998195;28;20477;-65
2022/03/27 00:11:26;;;;;;;35.38;16.15;;;;;;;10.49;36.26;97532.09;4974571;28;20039;-67
2022/03/27 00:13:54;;;;;;;46.20;17.55;;;;;;;10.41;36.54;97537.72;4981746;28;20043;-65
2022/03/27 00:16:20;;;;;;;37.85;16.45;;;;;;;10.45;36.37;97536.66;4986284;28;20132;-67
2022/03/27 00:18:46;;;;;;;44.30;16.75;;;;;;;10.41;36.43;97540.47;5005881;28;20042;-68
2022/03/27 00:21:11;;;;;;;40.70;18.42;;;;;;;10.44;36.40;97534.28;4999676;28;20130;-67
2022/03/27 00:23:37;;;;;;;47.83;17.40;;;;;;;10.44;36.23;97534.28;5001665;28;20049;-67
2022/03/27 00:26:03;;;;;;;38.03;16.83;;;;;;;10.27;36.69;97536.09;5009302;28;20052;-66
2022/03/27 00:28:32;;;;;;;39.63;16.73;;;;;;;10.17;36.89;97536.56;5012333;28;20036;-66
2022/03/27 00:30:59;;;;;;;41.50;17.37;;;;;;;10.12;37.31;97528.59;4994868;28;20062;-67
2022/03/27 00:33:26;;;;;;;37.13;17.10;;;;;;;10.16;37.07;97532.25;4999145;28;20272;-67
2022/03/27 00:35:51;;;;;;;33.83;15.40;;;;;;;10.06;37.52;97532.69;5001318;28;20558;-67
2022/03/27 00:38:17;;;;;;;41.42;18.05;;;;;;;9.96;37.87;97528.47;4990569;28;20042;-67
2022/03/27 00:40:42;;;;;;;37.17;16.35;;;;;;;9.98;37.67;97530.88;5001398;28;20037;-65
2022/03/27 00:43:08;;;;;;;38.90;17.25;;;;;;;9.97;37.28;97540.22;4998734;28;20410;-68
2022/03/27 00:45:33;;;;;;;38.17;17.13;;;;;;;10.02;37.30;97534.53;5012724;28;20495;-67
2022/03/27 00:47:59;;;;;;;35.85;16.42;;;;;;;9.97;37.20;97529.28;4994852;28;20038;-66
2022/03/27 00:50:24;;;;;;;39.15;16.77;;;;;;;9.87;37.69;97527.81;4996990;28;20037;-66
2022/03/27 00:52:50;;;;;;;35.47;14.82;;;;;;;9.90;37.57;97524.38;4996442;28;20041;-66
2022/03/27 00:55:15;;;;;;;36.97;16.73;;;;;;;9.92;37.58;97530.28;4994029;28;20356;-65
2022/03/27 00:57:40;;;;;;;36.58;15.10;;;;;;;9.85;37.13;97530.88;4993992;28;20042;-69
2022/03/27 01:00:09;;;;;;;38.75;16.27;;;;;;;9.89;37.55;97531.78;4994513;28;20045;-67
2022/03/27 01:02:36;;;;;;;37.20;16.92;;;;;;;9.85;37.46;97517.19;4994118;28;20062;-67
2022/03/27 01:05:11;;;;;;;38.38;16.42;;;;;;;9.80;37.65;97522.09;4995499;28;20085;-67
2022/03/27 01:07:39;;;;;;;35.33;16.05;;;;;;;9.82;37.49;97522.56;4994844;28;20038;-67
2022/03/27 01:10:05;;;;;;;37.90;16.98;;;;;;;9.72;37.77;97513.66;4994046;28;20026;-67
2022/03/27 01:12:38;;;;;;;39.40;15.85;;;;;;;9.75;38.02;97512.16;4993894;28;20057;-67
2022/03/27 01:15:06;;;;;;;38.75;17.08;;;;;;;9.81;37.55;97515.47;4993691;28;20440;-67
2022/03/27 01:17:33;;;;;;;37.97;16.45;;;;;;;9.73;37.99;97514.44;4993933;28;20037;-65
2022/03/27 01:20:03;;;;;;;42.05;17.27;;;;;;;9.82;37.17;97512.41;4994275;28;20118;-66
2022/03/27 01:22:29;;;;;;;40.47;16.98;;;;;;;9.73;37.61;97495.31;4993759;28;20038;-65
2022/03/27 01:24:54;;;;;;;39.65;15.27;;;;;;;9.70;38.07;97509.66;5008725;28;20038;-67
2022/03/27 01:27:20;;;;;;;33.15;16.23;;;;;;;9.71;38.10;97503.06;4994251;28;20046;-66
2022/03/27 01:29:46;;;;;;;39.25;17.08;;;;;;;9.77;37.67;97509.88;4994358;28;20035;-66
2022/03/27 01:32:14;;;;;;;41.47;17.38;;;;;;;9.80;37.50;97503.75;4993451;28;20034;-66
2022/03/27 01:34:44;;;;;;;44.22;18.05;;;;;;;9.68;37.92;97504.53;4993418;28;20461;-67
2022/03/27 01:37:12;;;;;;;44.47;16.70;;;;;;;9.77;37.50;97485.25;4993451;28;20035;-65
2022/03/27 01:39:38;;;;;;;36.30;16.77;;;;;;;9.63;37.92;97504.75;4993010;28;20037;-67
2022/03/27 01:42:05;;;;;;;37.17;15.05;;;;;;;9.68;37.45;97492.78;4994481;28;20472;-66
2022/03/27 01:44:31;;;;;;;38.10;16.65;;;;;;;9.71;37.56;97492.13;4994172;28;20030;-64
2022/03/27 01:46:57;;;;;;;39.47;16.50;;;;;;;9.71;37.40;97495.63;4993595;28;20034;-65
2022/03/27 01:49:22;;;;;;;41.20;15.85;;;;;;;9.68;38.06;97501.78;4994240;28;20454;-66
2022/03/27 01:51:48;;;;;;;34.35;15.15;;;;;;;9.57;37.95;97504.16;5001798;28;20054;-65
2022/03/27 01:54:14;;;;;;;38.25;16.20;;;;;;;9.47;38.19;97496.44;5012377;28;20054;-66
2022/03/27 01:56:40;;;;;;;38.90;15.45;;;;;;;9.35;38.80;97496.41;5013429;28;20056;-66
2022/03/27 01:59:07;;;;;;;40.83;16.13;;;;;;;9.42;38.48;97498.56;5002445;28;20030;-65
2022/03/27 02:01:34;;;;;;;37.85;15.90;;;;;;;9.34;38.34;97498.31;4995302;28;20030;-64
2022/03/27 02:04:00;;;;;;;38.08;16.38;;;;;;;9.29;38.70;97501.28;4998502;28;20037;-67
2022/03/27 02:06:25;;;;;;;38.47;15.77;;;;;;;9.14;39.27;97497.25;4997918;28;20042;-65
2022/03/27 02:08:51;;;;;;;41.85;16.90;;;;;;;9.10;39.32;97503.75;4997799;28;20037;-67
2022/03/27 02:11:16;;;;;;;37.50;15.35;;;;;;;9.09;38.98;97492.03;4996085;28;20123;-65
2022/03/27 02:13:42;;;;;;;36.75;15.98;;;;;;;9.09;39.23;97492.03;4996373;28;20157;-67
2022/03/27 02:16:08;;;;;;;36.83;17.05;;;;;;;8.96;39.33;97502.09;4994298;28;20031;-65
2022/03/27 02:18:34;;;;;;;35.50;14.27;;;;;;;8.88;39.84;97496.72;4994447;28;20030;-68
2022/03/27 02:21:01;;;;;;;39.95;16.10;;;;;;;8.79;40.24;97505.78;4996121;28;20495;-68
2022/03/27 02:23:28;;;;;;;38.45;16.20;;;;;;;8.75;40.34;97496.69;5011077;28;20062;-67
2022/03/27 02:25:53;;;;;;;44.13;17.50;;;;;;;8.75;40.58;97496.69;4995424;28;20383;-66
2022/03/27 02:28:19;;;;;;;41.17;16.52;;;;;;;8.63;40.60;97493.09;4995228;28;20084;-67
2022/03/27 02:30:46;;;;;;;36.30;16.17;;;;;;;8.59;40.34;97506.63;4997264;28;20034;-66
2022/03/27 02:33:11;;;;;;;36.95;15.77;;;;;;;8.55;40.75;97492.00;4996432;28;20113;-67
2022/03/27 02:35:37;;;;;;;37.05;14.65;;;;;;;8.53;40.40;97511.44;4995798;28;20439;-67
2022/03/27 02:38:10;;;;;;;35.95;14.65;;;;;;;8.51;40.71;97507.47;4996532;28;20045;-66
2022/03/27 02:40:40;;;;;;;32.70;15.35;;;;;;;8.44;41.24;97510.72;4996227;28;20031;-67
2022/03/27 02:43:06;;;;;;;41.53;16.30;;;;;;;8.44;40.95;97504.47;4996518;28;20031;-66
2022/03/27 02:45:33;;;;;;;37.05;15.50;;;;;;;8.44;41.29;97508.00;4997024;28;20114;-66
2022/03/27 02:47:59;;;;;;;35.60;15.18;;;;;;;8.31;41.94;97500.84;4998210;28;20046;-65
2022/03/27 02:50:26;;;;;;;37.67;15.27;;;;;;;8.29;41.34;97500.38;4997372;28;20030;-65
2022/03/27 02:52:52;;;;;;;41.72;17.27;;;;;;;8.28;41.25;97504.22;4997991;28;20135;-66
2022/03/27 02:55:18;;;;;;;34.78;14.82;;;;;;;8.19;41.88;97507.84;4996949;28;20564;-64
2022/03/27 02:57:44;;;;;;;34.75;15.32;;;;;;;8.16;41.68;97491.31;4998452;28;20035;-66
2022/03/27 03:00:10;;;;;;;39.90;15.45;;;;;;;8.22;41.88;97498.19;5033101;28;20069;-64
2022/03/27 03:02:35;;;;;;;41.67;16.20;;;;;;;8.27;41.54;97499.94;5016671;28;20033;-68
2022/03/27 03:05:02;;;;;;;36.38;16.38;;;;;;;8.22;41.64;97498.19;5014738;28;20082;-65
2022/03/27 03:07:28;;;;;;;36.08;15.80;;;;;;;8.19;42.45;97498.84;5011949;28;20045;-67
2022/03/27 03:09:54;;;;;;;37.58;14.63;;;;;;;8.23;41.65;97497.06;4995923;28;20042;-64
2022/03/27 03:12:20;;;;;;;40.40;15.88;;;;;;;8.16;42.13;97503.03;4994562;28;20045;-65
2022/03/27 03:14:46;;;;;;;35.78;15.50;;;;;;;8.14;42.19;97509.94;4995553;28;20038;-67
2022/03/27 03:17:11;;;;;;;42.22;15.68;;;;;;;8.14;41.60;97504.47;4994402;28;20042;-64
2022/03/27 03:19:37;;;;;;;35.97;14.27;;;;;;;8.14;42.07;97502.56;4995057;28;20208;-64
2022/03/27 03:22:03;;;;;;;39.55;16.17;;;;;;;8.20;42.29;97500.44;4995531;28;20606;-66
2022/03/27 03:24:30;;;;;;;43.55;16.85;;;;;;;8.11;42.05;97516.88;4995594;28;20038;-65
2022/03/27 03:26:56;;;;;;;38.83;15.52;;;;;;;8.06;42.47;97505.34;4994719;28;20398;-67
2022/03/27 03:29:21;;;;;;;35.22;14.80;;;;;;;7.99;42.56;97508.59;4993929;28;20034;-64
2022/03/27 03:31:48;;;;;;;39.00;16.67;;;;;;;8.00;41.92;97508.25;4994898;28;20412;-65
2022/03/27 03:34:14;;;;;;;42.95;16.83;;;;;;;8.03;42.19;97513.06;4995241;28;20037;-67
2022/03/27 03:36:39;;;;;;;37.30;14.70;;;;;;;7.96;42.41;97515.50;4994466;28;20442;-67
2022/03/27 03:39:04;;;;;;;38.08;17.23;;;;;;;7.96;42.15;97514.69;4995207;28;20069;-66
2022/03/27 03:41:30;;;;;;;39.40;15.63;;;;;;;7.92;42.69;97521.94;4995310;28;20475;-66
2022/03/27 03:43:55;;;;;;;35.15;15.80;;;;;;;7.85;43.25;97525.22;4995111;28;20034;-66
2022/03/27 03:46:20;;;;;;;38.58;17.52;;;;;;;7.94;42.66;97516.94;4994436;28;20030;-65
2022/03/27 03:48:46;;;;;;;38.13;15.95;;;;;;;7.87;43.33;97522.13;4994825;28;20553;-64
2022/03/27 03:51:12;;;;;;;39.88;17.10;;;;;;;7.84;43.03;97512.69;4993028;28;20049;-65
2022/03/27 03:53:37;;;;;;;34.17;14.23;;;;;;;7.87;42.44;97528.41;4995219;28;20030;-66
2022/03/27 03:56:05;;;;;;;40.63;17.02;;;;;;;7.77;42.72;97512.41;5012913;28;20033;-66
2022/03/27 03:58:30;;;;;;;42.50;14.23;;;;;;;7.75;43.24;97517.38;4995649;28;20042;-67
2022/03/27 04:00:56;;;;;;;37.08;15.52;;;;;;;7.64;43.91;97520.47;4992810;28;20034;-66
2022/03/27 04:03:21;;;;;;;36.15;16.90;;;;;;;7.70;43.85;97520.28;4996090;28;20034;-64
2022/03/27 04:05:47;;;;;;;34.60;15.80;;;;;;;7.67;43.44;97516.31;4994620;28;20034;-65
2022/03/27 04:08:14;;;;;;;46.38;16.10;;;;;;;7.77;42.98;97524.09;4993944;28;20093;-66
2022/03/27 04:10:41;;;;;;;35.75;14.93;;;;;;;7.77;43.40;97515.13;4992376;28;20042;-65
2022/03/27 04:13:09;;;;;;;40.58;16.60;;;;;;;7.77;43.48;97520.56;4993590;28;20144;-66
2022/03/27 04:15:35;;;;;;;36.65;14.73;;;;;;;7.68;43.39;97522.56;5007876;28;20113;-67
2022/03/27 04:18:01;;;;;;;41.33;16.38;;;;;;;7.68;43.59;97528.00;4993842;28;20053;-67
2022/03/27 04:20:26;;;;;;;39.97;16.45;;;;;;;7.63;43.53;97524.34;4994470;28;20022;-66
2022/03/27 04:22:52;;;;;;;39.75;17.98;;;;;;;7.53;44.38;97532.88;4995546;28;20026;-66
2022/03/27 04:25:17;;;;;;;38.58;15.02;;;;;;;7.48;44.09;97538.50;4995485;28;20037;-62
2022/03/27 04:27:43;;;;;;;44.05;15.70;;;;;;;7.44;44.28;97545.72;5003675;28;20026;-66
2022/03/27 04:30:10;;;;;;;41.20;15.52;;;;;;;7.48;44.43;97552.13;5008635;28;20030;-66
2022/03/27 04:32:36;;;;;;;46.17;16.92;;;;;;;7.56;44.15;97556.75;5003773;28;20037;-67
2022/03/27 04:35:03;;;;;;;42.03;16.13;;;;;;;7.50;44.32;97555.31;4992398;28;20490;-67
2022/03/27 04:37:29;;;;;;;38.30;16.45;;;;;;;7.40;44.59;97550.22;4991603;28;20038;-66
2022/03/27 04:40:01;;;;;;;40.13;15.23;;;;;;;7.33;44.85;97556.19;4991438;28;20109;-66
2022/03/27 04:42:27;;;;;;;39.17;15.40;;;;;;;7.38;44.90;97557.91;4992885;28;20431;-68
2022/03/27 04:44:52;;;;;;;44.78;16.05;;;;;;;7.30;44.50;97559.53;4993490;28;20045;-66
2022/03/27 04:47:18;;;;;;;35.45;15.63;;;;;;;7.23;45.41;97568.19;4992523;28;20042;-66
2022/03/27 04:49:43;;;;;;;40.75;16.60;;;;;;;7.17;45.86;97561.31;4993207;28;20051;-66
2022/03/27 04:52:08;;;;;;;41.53;16.98;;;;;;;7.26;45.15;97564.03;4995017;28;20049;-67
2022/03/27 04:54:34;;;;;;;41.55;16.75;;;;;;;7.27;44.99;97565.63;5032386;23;20038;-64
2022/03/27 04:57:00;;;;;;;41.67;17.08;;;;;;;7.35;45.13;97577.66;5009299;28;20038;-64
2022/03/27 04:59:25;;;;;;;40.08;17.13;;;;;;;7.37;45.10;97573.47;5012044;28;20095;-62
2022/03/27 05:01:51;;;;;;;40.28;15.57;;;;;;;7.36;45.09;97571.06;5009687;28;20061;-65
2022/03/27 05:04:16;;;;;;;45.13;16.33;;;;;;;7.31;45.13;97579.41;5007848;28;20033;-66
2022/03/27 05:06:42;;;;;;;40.13;16.40;;;;;;;7.29;44.81;97585.19;5011158;28;20445;-64
2022/03/27 05:09:07;;;;;;;40.70;16.98;;;;;;;7.22;45.48;97582.97;4997989;28;20026;-66
2022/03/27 05:11:32;;;;;;;41.55;17.55;;;;;;;7.06;45.80;97576.41;5011806;28;20052;-64
2022/03/27 05:13:58;;;;;;;40.53;16.70;;;;;;;6.91;46.55;97577.69;5011454;28;20526;-63
2022/03/27 05:16:23;;;;;;;40.95;16.83;;;;;;;6.83;47.10;97586.66;5009073;28;20021;-64
2022/03/27 05:18:49;;;;;;;33.40;14.98;;;;;;;6.77;46.82;97580.59;5000213;28;20111;-64
2022/03/27 05:21:15;;;;;;;34.45;15.13;;;;;;;6.66;47.17;97582.00;5011570;28;20030;-64
2022/03/27 05:23:41;;;;;;;39.55;16.55;;;;;;;6.60;47.00;97578.63;5010893;28;20032;-64
2022/03/27 05:26:08;;;;;;;51.65;15.68;;;;;;;6.60;47.37;97572.41;5010996;28;20038;-64
2022/03/27 05:28:34;;;;;;;36.05;15.75;;;;;;;6.67;47.42;97575.44;5011796;28;20053;-65
2022/03/27 05:31:02;;;;;;;38.65;16.33;;;;;;;6.81;47.23;97581.53;5001418;28;20037;-65
2022/03/27 05:33:28;;;;;;;39.45;14.80;;;;;;;7.15;46.63;97576.38;5015178;28;20034;-65
2022/03/27 05:35:53;;;;;;;40.42;15.60;;;;;;;7.57;45.60;97588.31;5014400;28;20026;-65
2022/03/27 05:38:19;;;;;;;35.63;15.18;;;;;;;8.01;45.07;97585.44;5008513;28;20037;-65
2022/03/27 05:40:45;;;;;;;35.60;15.52;;;;;;;8.63;44.18;97581.28;5027174;28;20030;-66
2022/03/27 05:43:11;;;;;;;38.78;14.82;;;;;;;9.24;42.90;97585.41;5002857;28;20052;-65
2022/03/27 05:45:36;;;;;;;36.97;16.88;;;;;;;9.73;41.70;97585.56;5013917;28;20034;-65
2022/03/27 05:48:03;;;;;;;38.85;15.43;;;;;;;9.48;42.19;97592.91;5006445;28;20061;-65
2022/03/27 05:50:28;;;;;;;34.70;16.67;;;;;;;8.80;43.38;97596.72;4998102;28;20344;-64
2022/03/27 05:52:54;;;;;;;39.25;15.27;;;;;;;8.88;43.37;97604.06;5014964;28;20034;-64
2022/03/27 05:55:22;;;;;;;36.08;15.52;;;;;;;8.83;43.29;97600.75;5014362;28;20505;-64
2022/03/27 05:57:48;;;;;;;37.65;15.25;;;;;;;9.83;42.13;97595.28;5014772;28;20048;-65
2022/03/27 06:00:16;;;;;;;36.90;15.20;;;;;;;10.19;41.68;97604.66;5013748;28;20037;-63
2022/03/27 06:02:42;;;;;;;35.05;15.57;;;;;;;11.29;40.16;97599.00;5014240;28;20037;-65
2022/03/27 06:05:08;;;;;;;32.38;13.90;;;;;;;11.50;40.36;97597.97;5014791;28;20102;-64
2022/03/27 06:07:47;;;;;;;39.63;14.15;;;;;;;12.36;37.75;97597.44;4989495;28;20054;-65
2022/03/27 06:10:14;;;;;;;29.67;14.27;;;;;;;12.32;37.44;97601.28;5008472;28;20072;-65
2022/03/27 06:12:43;;;;;;;30.83;13.90;;;;;;;13.38;36.18;97606.75;5010511;28;20076;-64
2022/03/27 06:15:09;;;;;;;35.08;15.85;;;;;;;13.67;35.64;97604.56;5025033;28;20098;-65
2022/03/27 06:17:44;;;;;;;33.35;14.98;;;;;;;13.46;36.11;97615.94;5016651;28;20022;-65
2022/03/27 06:20:12;;;;;;;31.17;14.48;;;;;;;13.98;35.40;97606.28;5014542;28;20026;-65
2022/03/27 06:22:39;;;;;;;31.10;14.50;;;;;;;15.32;32.03;97609.06;5014245;28;20069;-65
2022/03/27 06:25:07;;;;;;;29.77;14.48;;;;;;;15.95;31.30;97608.19;5013984;28;20038;-65
2022/03/27 06:27:32;;;;;;;28.80;14.88;;;;;;;16.26;30.92;97611.66;5013791;28;20088;-65
2022/03/27 06:29:58;;;;;;;33.85;16.15;;;;;;;13.61;33.26;97606.78;5013520;28;20041;-65
2022/03/27 06:32:26;;;;;;;39.05;18.08;;;;;;;11.60;37.40;97615.91;4999858;28;20034;-65
2022/03/27 06:34:56;;;;;;;33.40;15.85;;;;;;;11.09;38.61;97613.69;5014048;28;20045;-64
2022/03/27 06:37:21;;;;;;;37.05;16.83;;;;;;;10.49;40.02;97613.47;5013766;28;20061;-64
2022/03/27 06:39:48;;;;;;;33.55;14.60;;;;;;;10.81;39.03;97619.94;5016017;28;20041;-65
2022/03/27 06:42:14;;;;;;;40.08;16.65;;;;;;;11.20;38.95;97612.06;5020353;28;20030;-65
2022/03/27 06:44:39;;;;;;;42.50;15.82;;;;;;;11.34;38.92;97614.41;5018053;28;20119;-65
2022/03/27 06:47:07;;;;;;;36.03;14.75;;;;;;;11.86;38.22;97609.91;5015415;28;20057;-65
2022/03/27 06:49:33;;;;;;;35.38;15.63;;;;;;;13.35;36.02;97605.50;5007789;28;20108;-65
2022/03/27 06:51:58;;;;;;;34.67;15.85;;;;;;;14.67;34.26;97610.94;5013662;28;20061;-65
2022/03/27 06:54:24;;;;;;;29.95;13.63;;;;;;;16.69;31.71;97617.50;5014002;28;20049;-65
2022/03/27 06:56:49;;;;;;;32.75;15.20;;;;;;;18.15;29.32;97615.75;5013299;28;20030;-64
2022/03/27 06:59:14;;;;;;;31.95;15.10;;;;;;;19.28;27.07;97606.88;5013635;28;20505;-65
2022/03/27 07:04:23;;;;;;;29.95;15.43;;;;;;;19.46;28.08;97621.53;5013705;28;20055;-63
2022/03/27 07:06:49;;;;;;;29.10;15.48;;;;;;;19.65;28.15;97625.78;4995291;28;20479;-66
2022/03/27 07:09:14;;;;;;;30.63;14.63;;;;;;;20.36;27.28;97617.41;4995404;28;20487;-63
2022/03/27 07:11:40;;;;;;;30.08;15.98;;;;;;;20.14;25.83;97619.56;5013167;28;20025;-65
2022/03/27 07:14:07;;;;;;;32.15;15.32;;;;;;;18.09;28.96;97618.09;5013084;28;20474;-63
2022/03/27 07:16:32;;;;;;;31.00;16.55;;;;;;;14.20;32.67;97618.44;5010991;28;20553;-65
2022/03/27 07:18:58;;;;;;;31.70;16.25;;;;;;;16.71;31.18;97626.19;5012868;28;20040;-63
2022/03/27 07:21:24;;;;;;;35.80;16.13;;;;;;;15.64;32.20;97623.22;5009770;28;20045;-65
2022/03/27 07:23:49;;;;;;;34.67;19.38;;;;;;;15.22;32.79;97621.56;5012981;28;20466;-65
2022/03/27 07:26:17;;;;;;;33.70;18.67;;;;;;;13.80;33.90;97625.22;5011780;28;20034;-65
2022/03/27 07:28:42;;;;;;;35.90;16.27;;;;;;;15.27;32.75;97626.75;5012226;28;20034;-64
2022/03/27 07:31:11;;;;;;;33.15;15.65;;;;;;;15.87;31.35;97628.63;5011083;28;20040;-65
2022/03/27 07:33:37;;;;;;;34.05;15.90;;;;;;;14.28;33.34;97624.91;5008069;28;20100;-66
2022/03/27 07:36:03;;;;;;;31.05;15.63;;;;;;;13.46;35.35;97632.44;5009276;28;20036;-65
2022/03/27 07:38:28;;;;;;;33.00;15.68;;;;;;;11.84;38.26;97629.47;4994294;28;20029;-65
2022/03/27 07:40:54;;;;;;;35.92;16.42;;;;;;;11.79;38.87;97629.75;5012734;28;20065;-64
2022/03/27 07:43:19;;;;;;;34.60;16.42;;;;;;;11.81;38.92;97630.19;5012578;28;20097;-64
2022/03/27 07:45:45;;;;;;;37.85;15.88;;;;;;;12.14;38.56;97633.78;5012823;28;20042;-65
2022/03/27 07:48:11;;;;;;;37.65;16.30;;;;;;;13.32;36.96;97621.94;5013829;28;20112;-65
2022/03/27 07:50:36;;;;;;;36.60;16.40;;;;;;;14.71;34.95;97629.16;5013288;28;20021;-65
2022/03/27 07:53:04;;;;;;;34.40;17.98;;;;;;;14.01;35.50;97630.34;5015956;28;20577;-65
2022/03/27 07:55:29;;;;;;;39.25;18.90;;;;;;;14.42;34.61;97616.03;5013350;28;20085;-65
2022/03/27 07:57:56;;;;;;;33.88;16.48;;;;;;;13.64;36.36;97616.28;4995694;28;20450;-64
2022/03/27 08:00:22;;;;;;;35.17;16.45;;;;;;;14.37;34.48;97627.38;5012351;28;20041;-64
2022/03/27 08:02:47;;;;;;;34.42;16.63;;;;;;;14.56;34.71;97621.78;4994729;28;20159;-65
2022/03/27 08:05:13;;;;;;;34.80;15.73;;;;;;;14.69;34.10;97620.44;5011541;28;20116;-65
2022/03/27 08:07:39;;;;;;;29.90;14.90;;;;;;;16.16;31.92;97615.88;5002766;28;20037;-65
2022/03/27 08:10:06;;;;;;;34.15;17.40;;;;;;;15.10;33.04;97617.84;5012622;28;20056;-62
2022/03/27 08:12:32;;;;;;;32.78;15.85;;;;;;;14.88;32.47;97618.75;5012404;28;20029;-64
2022/03/27 08:14:57;;;;;;;32.90;16.77;;;;;;;16.97;29.66;97622.44;4994845;28;20058;-63
2022/03/27 08:17:23;;;;;;;29.50;15.43;;;;;;;14.21;33.62;97613.75;4994817;28;20048;-63
2022/03/27 08:19:50;;;;;;;33.33;15.27;;;;;;;16.96;31.97;97622.81;5010928;28;20053;-63
2022/03/27 08:22:16;;;;;;;33.20;15.70;;;;;;;18.55;29.58;97608.22;4983460;28;20508;-64
2022/03/27 08:24:42;;;;;;;31.42;14.93;;;;;;;18.88;28.46;97618.09;5011699;28;20030;-64
2022/03/27 08:27:08;;;;;;;29.27;15.32;;;;;;;20.00;27.20;97615.69;5011429;28;20029;-64
2022/03/27 08:29:38;;;;;;;29.63;14.48;;;;;;;19.80;27.41;97614.63;5011735;28;20038;-65
2022/03/27 08:32:07;;;;;;;33.42;15.77;;;;;;;20.49;26.29;97615.75;4994027;28;20110;-63
2022/03/27 08:34:34;;;;;;;28.88;14.68;;;;;;;20.54;26.52;97617.28;5010946;28;20036;-62
2022/03/27 08:37:02;;;;;;;31.20;15.68;;;;;;;20.59;25.91;97617.63;5010798;28;20030;-66
2022/03/27 08:39:28;;;;;;;29.00;14.60;;;;;;;19.37;27.70;97621.13;4993384;28;20038;-63
2022/03/27 08:41:55;;;;;;;32.13;15.38;;;;;;;18.90;28.24;97618.50;5011949;28;20041;-64
2022/03/27 08:44:23;;;;;;;36.08;15.55;;;;;;;18.42;28.52;97621.69;5011490;28;20083;-65
2022/03/27 08:46:51;;;;;;;32.25;16.55;;;;;;;18.21;29.67;97616.94;5005373;28;20137;-66
2022/03/27 08:49:25;;;;;;;32.15;16.20;;;;;;;18.01;29.97;97622.06;5011138;28;20478;-65
2022/03/27 08:52:17;;;;;;;31.95;14.98;;;;;;;18.33;29.52;97618.53;5005716;28;20038;-63
2022/03/27 08:54:54;;;;;;;31.42;15.63;;;;;;;18.32;29.54;97620.50;5010222;28;20050;-63
2022/03/27 08:57:29;;;;;;;32.17;16.15;;;;;;;18.13;29.58;97623.66;5011107;28;20551;-63
2022/03/27 08:59:57;;;;;;;28.20;15.02;;;;;;;18.72;28.79;97618.50;5011281;28;20030;-64
2022/03/27 09:02:24;;;;;;;29.45;15.98;;;;;;;18.28;29.62;97618.94;5011433;28;20030;-63
2022/03/27 09:04:54;;;;;;;30.48;15.00;;;;;;;18.58;29.31;97618.50;5012946;28;20466;-63
2022/03/27 09:07:27;;;;;;;28.38;15.40;;;;;;;18.39;29.42;97627.25;5015106;28;20172;-64
2022/03/27 09:09:53;;;;;;;30.13;15.18;;;;;;;18.82;28.39;97625.25;5015330;28;20405;-64
2022/03/27 09:12:20;;;;;;;31.58;15.40;;;;;;;19.14;28.18;97626.38;5015286;28;20034;-64
2022/03/27 09:14:45;;;;;;;31.40;15.85;;;;;;;19.28;28.16;97624.38;5015028;28;20034;-63
2022/03/27 09:17:11;;;;;;;27.33;15.70;;;;;;;19.20;28.28;97614.47;5013084;28;20033;-63
2022/03/27 09:19:50;;;;;;;28.63;15.68;;;;;;;18.94;28.99;97617.69;5006697;28;20087;-64
2022/03/27 09:22:18;;;;;;;28.52;15.05;;;;;;;19.34;28.44;97618.38;5015183;28;20466;-64
2022/03/27 09:24:47;;;;;;;26.05;14.23;;;;;;;20.14;27.70;97622.34;5014632;28;20482;-63
2022/03/27 09:27:16;;;;;;;30.70;16.02;;;;;;;19.53;27.89;97623.44;5005527;28;20046;-64
2022/03/27 09:30:06;;;;;;;30.13;15.52;;;;;;;20.09;26.63;97620.78;5023467;28;20033;-63
2022/03/27 09:32:35;;;;;;;28.23;14.27;;;;;;;19.48;27.70;97624.69;5028152;28;20025;-64
2022/03/27 09:35:03;;;;;;;30.27;15.07;;;;;;;19.11;27.84;97616.88;5016776;28;20041;-63
2022/03/27 09:37:38;;;;;;;29.40;15.00;;;;;;;19.19;27.63;97617.63;5015806;28;20065;-64
2022/03/27 09:40:08;;;;;;;32.25;15.73;;;;;;;18.88;28.59;97620.88;4998699;28;20433;-64
2022/03/27 09:42:39;;;;;;;28.50;15.63;;;;;;;19.31;27.77;97625.53;5015757;28;20435;-65
2022/03/27 09:45:11;;;;;;;33.38;15.32;;;;;;;18.58;29.36;97617.72;4997736;28;20339;-66
2022/03/27 09:47:37;;;;;;;32.63;16.15;;;;;;;19.37;28.48;97623.91;5012480;28;20088;-65
2022/03/27 09:50:03;;;;;;;28.42;15.13;;;;;;;19.46;28.58;97618.75;5014534;28;20030;-65
2022/03/27 09:52:30;;;;;;;34.58;15.88;;;;;;;19.34;28.63;97615.59;5013584;28;20058;-65
2022/03/27 09:55:03;;;;;;;32.63;15.60;;;;;;;19.70;28.19;97616.25;5015623;28;20487;-65
2022/03/27 09:57:35;;;;;;;31.02;16.17;;;;;;;19.64;28.57;97618.66;5015474;28;20088;-65
2022/03/27 10:00:19;;;;;;;26.75;15.25;;;;;;;19.91;27.99;97620.13;5029540;28;20034;-65
2022/03/27 10:02:46;;;;;;;31.38;14.63;;;;;;;18.96;28.97;97624.44;5020347;28;20033;-63
2022/03/27 10:05:18;;;;;;;30.55;15.18;;;;;;;18.82;29.20;97622.50;5014768;28;20053;-64
2022/03/27 10:07:47;;;;;;;35.05;16.13;;;;;;;18.84;29.64;97622.09;5014818;28;20341;-65
2022/03/27 10:10:19;;;;;;;33.85;16.73;;;;;;;19.13;29.30;97616.47;5014660;28;20030;-65
2022/03/27 10:12:46;;;;;;;35.63;16.20;;;;;;;18.66;30.37;97617.31;4980807;28;20029;-66
2022/03/27 10:15:20;;;;;;;31.30;16.42;;;;;;;19.24;29.14;97620.78;5013974;28;20053;-65
2022/03/27 10:17:53;;;;;;;30.25;14.88;;;;;;;19.29;29.42;97616.81;5012451;28;20037;-65
2022/03/27 10:20:21;;;;;;;34.28;16.05;;;;;;;19.78;28.52;97626.13;5014403;28;20033;-65
2022/03/27 10:22:56;;;;;;;30.80;15.70;;;;;;;19.14;29.21;97620.81;5014592;28;20037;-65
2022/03/27 10:25:25;;;;;;;28.10;14.80;;;;;;;19.41;29.20;97619.16;5013994;28;20045;-65
2022/03/27 10:27:51;;;;;;;34.47;15.53;;;;;;;19.85;28.79;97614.19;5014543;28;20026;-64
2022/03/27 10:30:17;;;;;;;29.40;15.60;;;;;;;18.95;30.31;97606.19;5002179;28;20072;-66
2022/03/27 10:32:43;;;;;;;37.47;16.45;;;;;;;18.47;31.19;97612.97;5012295;28;20038;-65
2022/03/27 10:35:22;;;;;;;38.72;17.42;;;;;;;19.44;29.14;97606.44;5013899;28;20025;-64
2022/03/27 10:38:13;;;;;;;33.25;15.95;;;;;;;19.07;29.42;97607.78;5013665;28;20038;-64
2022/03/27 10:41:13;;;;;;;36.33;15.38;;;;;;;18.60;29.94;97607.81;4996320;28;20171;-64
2022/03/27 10:43:41;;;;;;;;;;;;;;;19.80;28.45;97604.28;4994529;28;20052;-64
2022/03/27 10:46:18;;;;;;;31.05;15.90;;;;;;;19.33;29.55;97597.34;4993957;28;19917;-64
2022/03/27 10:48:45;;;;;;;31.75;15.82;;;;;;;19.43;29.11;97604.88;4976692;28;20041;-65
2022/03/27 10:51:32;;;;;;;34.35;16.70;;;;;;;20.17;28.63;97602.09;4994367;28;20034;-64
2022/03/27 10:54:03;;;;;;;33.80;16.50;;;;;;;19.44;29.12;97601.66;4995240;28;20536;-65
2022/03/27 10:56:34;;;;;;;30.83;17.10;;;;;;;20.21;27.99;97600.84;5013345;28;20042;-65
2022/03/27 10:59:09;;;;;;;34.30;17.23;;;;;;;19.32;29.12;97590.22;5014246;28;20050;-64
2022/03/27 11:01:38;;;;;;;34.05;16.05;;;;;;;20.12;27.85;97591.38;5016421;28;20032;-66
2022/03/27 11:04:09;;;;;;;30.23;15.52;;;;;;;19.93;28.11;97595.47;5018995;28;20105;-66
2022/03/27 11:06:46;;;;;;;28.00;15.18;;;;;;;19.88;27.44;97595.91;5018729;28;20026;-65
2022/03/27 11:09:32;;;;;;;31.88;16.65;;;;;;;19.64;28.20;97590.06;5014661;28;20049;-65
2022/03/27 11:11:58;;;;;;;30.55;16.02;;;;;;;19.40;28.67;97586.22;5015770;28;20080;-66
2022/03/27 11:14:52;;;;;;;35.03;16.17;;;;;;;18.97;28.70;97578.03;5013619;28;20036;-65
2022/03/27 11:17:30;;;;;;;31.80;16.10;;;;;;;19.02;28.63;97572.09;5013205;28;20112;-64
2022/03/27 11:19:56;;;;;;;32.13;16.38;;;;;;;19.06;29.31;97573.63;5013337;28;20116;-65
2022/03/27 11:22:51;;;;;;;32.08;16.50;;;;;;;18.78;29.54;97574.50;5014653;28;20030;-65
2022/03/27 11:25:38;;;;;;;30.90;15.60;;;;;;;18.99;29.80;97572.88;5011279;28;20038;-65
2022/03/27 11:28:05;;;;;;;29.25;16.48;;;;;;;19.13;29.09;97574.81;5013118;28;20029;-65